Aérodrome :
LOGIN :

S'inscrire | Disclaimer

   EN    FR    IT 

 










Légende :    VFR   VFR Marginal   IFR   IFR Intensif   IFR Très Intensif
Visi : 
Plafond : 
>= 8 km
>= 3000ft
5 à 8 km
1000 à 3000 ft
1500m à 5 km
500 à 1000 ft
800 à 1500m
200 à 500 ft
< 800m
< 200 ft
Symboles :   Orages  Brouillard  Fortes neiges  Fortes précipitations  Vent > 20 kt
SIGMETs :   Divers  Orages  Givrage  Turbulence  Onde Orograph.  Cendres Volcan.






- Altitude de l'aérodrome : 132 ft


EGXE - RAF Leeming

DERNIER METAR :
  • 171250Z 15011KT 9999 FEW022 13/08 Q1002 NOSIG RMK BLU BLU

METARs EXPIRÉS :
  • 171220Z 13006KT 9999 FEW020 12/08 Q1002 NOSIG RMK BLU BLU
  • 171150Z 14008KT 9999 FEW015 11/07 Q1002 NOSIG RMK BLU BLU
  • 171120Z 14010KT 9999 FEW012 11/07 Q1003 NOSIG RMK BLU BLU
  • 171050Z 15009KT 9999 FEW012 10/07 Q1003 NOSIG RMK BLU BLU
  • 171020Z 13008KT 9999 FEW010 09/06 Q1003 NOSIG RMK BLU BLU

TAF TAF EGXE
Valide du 17 à 12h jusqu'au 17 à 18h UTC


171028Z 1712/1718 16012KT 9999 FEW022
PROB30
TEMPO 1714/1718 7000 SHRA SCT022TCU



MET'MAP, la Météo Aéronautique d'un coup d'oeil ! - Copyright ORBIFLY Décembre 2007 - Disclaimer

ORBIFLY MET'MAP TEAM :

Programmation & Développement : Alexandra Zaïnal
Conception & Développement : Baudouin d'Aumeries
Co-Programmation & Développement : Marc-Olivier Méhu
Soutien technique & logistique : Manuel Goepfert

Contact : metmap@orbifly.com




SOURCES & CREDITS :

   NOAA